createdAt,value
2018-05-23T00:02:21.041Z,17.71
2018-05-23T00:04:48.665Z,17.66
2018-05-23T00:07:16.236Z,17.64
2018-05-23T00:09:43.813Z,17.66
2018-05-23T00:12:11.480Z,17.62
2018-05-23T00:14:39.067Z,17.64
2018-05-23T00:17:06.662Z,17.65
2018-05-23T00:19:34.274Z,17.62
2018-05-23T00:22:02.785Z,17.59
2018-05-23T00:24:30.356Z,17.57
2018-05-23T00:26:57.947Z,17.54
2018-05-23T00:29:25.568Z,17.55
2018-05-23T00:31:53.163Z,17.57
2018-05-23T00:34:20.749Z,17.53
2018-05-23T00:36:48.340Z,17.46
2018-05-23T00:39:16.087Z,17.37
2018-05-23T00:41:43.673Z,17.32
2018-05-23T00:44:11.439Z,17.28
2018-05-23T00:46:39.016Z,17.25
2018-05-23T00:49:06.691Z,17.26
2018-05-23T00:51:34.324Z,17.19
2018-05-23T00:54:02.013Z,17.07
2018-05-23T00:56:29.612Z,17.01
2018-05-23T00:58:57.197Z,16.96
2018-05-23T01:01:24.786Z,16.95
2018-05-23T01:03:52.375Z,16.89
2018-05-23T01:06:19.978Z,16.88
2018-05-23T01:08:47.608Z,16.89
2018-05-23T01:11:15.195Z,16.92
2018-05-23T01:13:42.924Z,16.90
2018-05-23T01:16:10.520Z,16.86
2018-05-23T01:18:38.289Z,16.83
2018-05-23T01:21:05.979Z,16.85
2018-05-23T01:23:33.582Z,16.84
2018-05-23T01:26:01.209Z,16.84
2018-05-23T01:28:28.803Z,16.82
2018-05-23T01:30:56.422Z,16.83
2018-05-23T01:33:24.010Z,16.80
2018-05-23T01:35:51.600Z,16.78
2018-05-23T01:38:19.217Z,16.75
2018-05-23T01:40:47.061Z,16.64
2018-05-23T01:43:14.845Z,16.57
2018-05-23T01:45:43.320Z,16.53
2018-05-23T01:48:10.902Z,16.44
2018-05-23T01:50:38.547Z,16.44
2018-05-23T01:53:06.141Z,16.37
2018-05-23T01:55:33.733Z,16.33
2018-05-23T01:58:01.446Z,16.27
2018-05-23T02:00:29.182Z,16.29
2018-05-23T02:02:56.765Z,16.27
2018-05-23T02:05:24.357Z,16.26
2018-05-23T02:07:51.944Z,16.24
2018-05-23T02:10:19.529Z,16.22
2018-05-23T02:12:47.169Z,16.19
2018-05-23T02:15:14.758Z,16.14
2018-05-23T02:17:42.542Z,16.06
2018-05-23T02:20:10.067Z,16.01
2018-05-23T02:22:37.645Z,16.02
2018-05-23T02:25:05.268Z,16.04
2018-05-23T02:27:32.848Z,16.03
2018-05-23T02:30:00.433Z,16.01
2018-05-23T02:32:28.022Z,16.01
2018-05-23T02:34:55.850Z,15.92
2018-05-23T02:37:23.671Z,15.87
2018-05-23T02:39:51.255Z,15.82
2018-05-23T02:42:19.110Z,15.76
2018-05-23T02:44:46.701Z,15.75
2018-05-23T02:47:14.388Z,15.74
2018-05-23T02:49:41.958Z,15.77
2018-05-23T02:52:09.599Z,15.70
2018-05-23T02:54:37.197Z,15.63
2018-05-23T02:57:04.922Z,15.59
2018-05-23T02:59:32.519Z,15.63
2018-05-23T03:02:00.357Z,15.55
2018-05-23T03:04:28.169Z,15.52
2018-05-23T03:06:55.756Z,15.58
2018-05-23T03:09:23.395Z,15.65
2018-05-23T03:11:50.968Z,15.68
2018-05-23T03:14:18.547Z,15.70
2018-05-23T03:16:46.205Z,15.76
2018-05-23T03:19:13.877Z,15.79
2018-05-23T03:21:41.473Z,15.80
2018-05-23T03:24:09.056Z,15.84
2018-05-23T03:26:36.839Z,15.82
2018-05-23T03:29:04.446Z,15.78
2018-05-23T03:31:32.191Z,15.71
2018-05-23T03:33:59.804Z,15.61
2018-05-23T03:36:27.385Z,15.61
2018-05-23T03:38:55.001Z,15.64
2018-05-23T03:41:22.841Z,15.69
2018-05-23T03:43:50.433Z,15.70
2018-05-23T03:46:18.031Z,15.75
2018-05-23T03:48:45.896Z,15.78
2018-05-23T03:51:13.473Z,15.82
2018-05-23T03:53:41.052Z,15.83
2018-05-23T03:56:08.766Z,15.87
2018-05-23T03:58:36.349Z,15.91
2018-05-23T04:01:15.561Z,15.96
2018-05-23T04:03:54.818Z,16.02
2018-05-23T04:09:40.292Z,16.07
2018-05-23T04:12:07.854Z,16.10
2018-05-23T04:14:35.452Z,16.21
2018-05-23T04:17:03.056Z,16.30
2018-05-23T04:19:30.669Z,16.37
2018-05-23T04:21:58.461Z,16.48
2018-05-23T04:24:26.056Z,16.59
2018-05-23T04:26:53.700Z,16.62
2018-05-23T04:29:21.273Z,16.72
2018-05-23T04:31:49.059Z,16.83
2018-05-23T04:34:16.877Z,16.93
2018-05-23T04:36:44.610Z,17.06
2018-05-23T04:39:12.289Z,17.16
2018-05-23T04:41:40.034Z,17.28
2018-05-23T04:44:07.668Z,17.38
2018-05-23T04:46:35.278Z,17.45
2018-05-23T04:49:03.001Z,17.51
2018-05-23T04:51:30.805Z,17.59
2018-05-23T04:53:58.388Z,17.62
2018-05-23T04:56:26.029Z,17.69
2018-05-23T04:58:53.594Z,17.78
2018-05-23T05:01:24.257Z,17.84
2018-05-23T05:03:52.105Z,17.88
2018-05-23T05:06:19.688Z,17.99
2018-05-23T05:08:47.296Z,18.08
2018-05-23T05:11:14.872Z,18.18
2018-05-23T05:13:42.643Z,18.17
2018-05-23T05:16:10.196Z,18.37
2018-05-23T05:18:37.763Z,18.59
2018-05-23T05:21:05.354Z,18.76
2018-05-23T05:23:33.151Z,18.95
2018-05-23T05:26:00.745Z,19.06
2018-05-23T05:28:28.344Z,19.15
2018-05-23T05:30:55.990Z,19.31
2018-05-23T05:33:23.567Z,19.51
2018-05-23T05:35:51.163Z,19.68
2018-05-23T05:38:18.748Z,19.82
2018-05-23T05:40:46.518Z,20.02
2018-05-23T05:43:14.165Z,20.12
2018-05-23T05:45:41.760Z,20.19
2018-05-23T05:48:09.421Z,20.37
2018-05-23T05:50:37.022Z,20.52
2018-05-23T05:53:04.605Z,20.60
2018-05-23T05:55:32.252Z,20.79
2018-05-23T05:57:59.832Z,20.97
2018-05-23T06:00:27.521Z,21.12
2018-05-23T06:02:55.338Z,21.28
2018-05-23T06:05:22.927Z,21.40
2018-05-23T06:07:50.518Z,21.54
2018-05-23T06:10:18.142Z,21.68
2018-05-23T06:12:45.896Z,21.72
2018-05-23T06:15:13.477Z,21.73
2018-05-23T06:17:41.060Z,21.79
2018-05-23T06:20:08.865Z,21.90
2018-05-23T06:22:36.683Z,21.99
2018-05-23T06:25:04.312Z,22.19
2018-05-23T06:27:31.922Z,22.48
2018-05-23T06:29:59.761Z,22.73
2018-05-23T06:32:27.345Z,22.89
2018-05-23T06:34:54.998Z,23.03
2018-05-23T06:37:22.750Z,23.11
2018-05-23T06:39:50.334Z,23.25
2018-05-23T06:42:17.920Z,23.43
2018-05-23T06:44:45.508Z,23.57
2018-05-23T06:47:13.200Z,23.74
2018-05-23T06:49:40.801Z,23.93
2018-05-23T06:52:08.372Z,24.07
2018-05-23T06:54:35.952Z,24.26
2018-05-23T06:57:03.681Z,24.53
2018-05-23T06:59:31.909Z,24.89
2018-05-23T07:01:59.498Z,25.28
2018-05-23T07:04:27.345Z,25.76
2018-05-23T07:06:55.165Z,26.12
2018-05-23T07:09:22.746Z,26.36
2018-05-23T07:11:50.497Z,26.50
2018-05-23T07:14:18.320Z,26.82
2018-05-23T07:16:45.961Z,27.12
2018-05-23T07:19:13.535Z,27.17
2018-05-23T07:21:41.112Z,27.09
2018-05-23T07:24:08.780Z,27.11
2018-05-23T07:26:36.385Z,27.25
2018-05-23T07:29:04.161Z,27.18
2018-05-23T07:31:31.753Z,27.31
2018-05-23T07:33:59.659Z,27.05
2018-05-23T07:36:27.252Z,26.86
2018-05-23T07:38:54.959Z,26.85
2018-05-23T07:41:22.547Z,26.85
2018-05-23T07:43:50.127Z,26.97
2018-05-23T07:46:17.716Z,27.17
2018-05-23T07:48:45.357Z,27.47
2018-05-23T07:51:12.990Z,27.55
2018-05-23T07:53:40.810Z,27.64
2018-05-23T07:56:08.419Z,27.91
2018-05-23T07:58:36.246Z,27.96
2018-05-23T08:01:03.834Z,27.83
2018-05-23T08:03:31.425Z,27.75
2018-05-23T08:05:59.173Z,27.80
2018-05-23T08:08:27.138Z,27.93
2018-05-23T08:10:54.878Z,28.18
2018-05-23T08:13:22.459Z,28.34
2018-05-23T08:15:50.039Z,28.43
2018-05-23T08:18:17.793Z,28.75
2018-05-23T08:20:45.386Z,28.95
2018-05-23T08:23:13.001Z,29.37
2018-05-23T08:25:40.680Z,29.70
2018-05-23T08:28:08.301Z,29.83
2018-05-23T08:30:35.885Z,29.84
2018-05-23T08:33:03.481Z,29.90
2018-05-23T08:35:31.057Z,29.78
2018-05-23T08:37:58.636Z,29.92
2018-05-23T08:40:26.456Z,29.94
2018-05-23T08:42:54.271Z,30.06
2018-05-23T08:45:21.844Z,30.18
2018-05-23T08:47:49.421Z,30.27
2018-05-23T08:50:17.021Z,29.91
2018-05-23T08:52:44.593Z,29.90
2018-05-23T08:55:12.189Z,29.94
2018-05-23T08:57:39.756Z,29.90
2018-05-23T09:00:07.396Z,29.67
2018-05-23T09:02:34.973Z,29.54
2018-05-23T09:05:02.743Z,29.45
2018-05-23T09:07:30.454Z,29.01
2018-05-23T09:09:58.270Z,28.94
2018-05-23T09:12:25.958Z,28.75
2018-05-23T09:14:53.506Z,28.85
2018-05-23T09:17:21.148Z,29.05
2018-05-23T09:19:48.725Z,29.36
2018-05-23T09:22:16.307Z,29.66
2018-05-23T09:24:43.898Z,29.97
2018-05-23T09:27:11.472Z,29.98
2018-05-23T09:29:39.314Z,29.95
2018-05-23T09:32:06.945Z,30.07
2018-05-23T09:34:34.615Z,30.36
2018-05-23T09:37:02.370Z,30.34
2018-05-23T09:39:29.935Z,30.57
2018-05-23T09:41:57.528Z,30.66
2018-05-23T09:44:25.389Z,31.17
2018-05-23T09:46:52.995Z,31.29
2018-05-23T09:49:20.759Z,31.53
2018-05-23T09:51:48.685Z,31.57
2018-05-23T09:54:16.471Z,31.58
2018-05-23T09:56:44.265Z,30.93
2018-05-23T09:59:12.068Z,31.07
2018-05-23T10:01:39.723Z,31.26
2018-05-23T10:04:07.295Z,31.58
2018-05-23T10:06:34.945Z,31.78
2018-05-23T10:09:02.529Z,31.48
2018-05-23T10:11:30.498Z,31.07
2018-05-23T10:13:58.134Z,31.08
2018-05-23T10:16:25.697Z,31.18
2018-05-23T10:18:53.480Z,31.06
2018-05-23T10:21:21.073Z,30.92
2018-05-23T10:23:48.742Z,30.97
2018-05-23T10:26:16.345Z,31.11
2018-05-23T10:28:43.929Z,31.10
2018-05-23T10:31:11.559Z,30.95
2018-05-23T10:33:39.186Z,30.89
2018-05-23T10:36:06.789Z,31.05
2018-05-23T10:38:34.534Z,31.13
2018-05-23T10:41:02.109Z,30.90
2018-05-23T10:43:29.705Z,30.83
2018-05-23T10:45:57.479Z,30.77
2018-05-23T10:48:25.121Z,30.77
2018-05-23T10:50:52.825Z,30.88
2018-05-23T10:53:20.400Z,31.10
2018-05-23T10:55:48.013Z,31.30
2018-05-23T10:58:15.589Z,31.36
2018-05-23T11:00:43.173Z,31.52
2018-05-23T11:03:11.005Z,31.60
2018-05-23T11:05:38.731Z,31.36
2018-05-23T11:08:06.254Z,31.12
2018-05-23T11:10:33.836Z,30.97
2018-05-23T11:13:01.439Z,30.80
2018-05-23T11:15:29.012Z,30.84
2018-05-23T11:17:56.672Z,31.15
2018-05-23T11:20:24.431Z,31.18
2018-05-23T11:22:52.005Z,30.99
2018-05-23T11:25:19.883Z,30.73
2018-05-23T11:27:47.460Z,30.61
2018-05-23T11:30:15.089Z,30.56
2018-05-23T11:32:42.822Z,30.37
2018-05-23T11:35:10.396Z,30.33
2018-05-23T11:37:37.992Z,30.53
2018-05-23T11:40:05.776Z,30.79
2018-05-23T11:42:33.597Z,31.11
2018-05-23T11:45:01.414Z,31.25
2018-05-23T11:47:28.984Z,31.30
2018-05-23T11:49:56.663Z,31.21
2018-05-23T11:52:24.247Z,31.01
2018-05-23T11:54:52.086Z,31.17
2018-05-23T11:57:19.906Z,31.38
2018-05-23T11:59:47.493Z,31.75
2018-05-23T12:02:15.091Z,31.88
2018-05-23T12:04:42.667Z,31.92
2018-05-23T12:07:10.398Z,31.86
2018-05-23T12:09:37.973Z,31.89
2018-05-23T12:12:05.606Z,31.95
2018-05-23T12:14:33.229Z,31.75
2018-05-23T12:17:00.788Z,31.27
2018-05-23T12:19:28.470Z,30.86
2018-05-23T12:21:56.072Z,30.71
2018-05-23T12:24:23.669Z,30.63
2018-05-23T12:26:51.253Z,30.51
2018-05-23T12:29:18.906Z,30.58
2018-05-23T12:31:46.658Z,30.68
2018-05-23T12:34:14.476Z,30.76
2018-05-23T12:36:42.065Z,30.78
2018-05-23T12:39:09.640Z,30.88
2018-05-23T12:41:37.221Z,30.94
2018-05-23T12:44:05.050Z,30.95
2018-05-23T12:46:32.680Z,30.79
2018-05-23T12:49:00.264Z,30.51
2018-05-23T12:51:27.846Z,30.27
2018-05-23T12:53:55.433Z,30.06
2018-05-23T12:56:23.013Z,29.97
2018-05-23T12:58:50.855Z,29.99
2018-05-23T13:01:18.449Z,30.25
2018-05-23T13:03:46.076Z,30.61
2018-05-23T13:06:13.910Z,30.76
2018-05-23T13:08:41.504Z,30.98
2018-05-23T13:11:09.110Z,31.15
2018-05-23T13:13:36.693Z,31.10
2018-05-23T13:16:04.394Z,31.33
2018-05-23T13:18:31.986Z,31.43
2018-05-23T13:20:59.732Z,31.23
2018-05-23T13:23:27.323Z,31.14
2018-05-23T13:25:54.950Z,31.16
2018-05-23T13:28:22.571Z,31.07
2018-05-23T13:30:50.298Z,31.13
2018-05-23T13:33:18.021Z,31.14
2018-05-23T13:35:45.827Z,31.26
2018-05-23T13:38:13.647Z,31.25
2018-05-23T13:40:41.285Z,31.18
2018-05-23T13:43:08.869Z,31.03
2018-05-23T13:45:36.701Z,30.75
2018-05-23T13:48:04.301Z,30.52
2018-05-23T13:50:31.897Z,30.55
2018-05-23T13:52:59.655Z,30.49
2018-05-23T13:55:27.476Z,30.57
2018-05-23T13:57:55.065Z,30.51
2018-05-23T14:00:22.783Z,30.48
2018-05-23T14:02:50.628Z,30.45
2018-05-23T14:05:18.204Z,30.48
2018-05-23T14:07:45.793Z,30.61
2018-05-23T14:10:13.387Z,30.80
2018-05-23T14:12:41.016Z,30.74
2018-05-23T14:15:08.592Z,30.60
2018-05-23T14:17:36.438Z,30.44
2018-05-23T14:20:04.100Z,30.28
2018-05-23T14:22:31.837Z,30.29
2018-05-23T14:24:59.468Z,30.17
2018-05-23T14:27:27.221Z,30.04
2018-05-23T14:29:54.852Z,30.05
2018-05-23T14:32:22.440Z,29.90
2018-05-23T14:34:50.012Z,29.83
2018-05-23T14:37:17.609Z,29.61
2018-05-23T14:39:45.357Z,29.43
2018-05-23T14:42:12.954Z,29.25
2018-05-23T14:44:40.545Z,29.17
2018-05-23T14:47:08.213Z,29.11
2018-05-23T14:49:35.846Z,28.98
2018-05-23T14:52:03.472Z,28.82
2018-05-23T14:54:31.056Z,28.79
2018-05-23T14:56:59.221Z,28.84
2018-05-23T14:59:27.012Z,28.92
2018-05-23T15:01:54.591Z,29.00
2018-05-23T15:04:22.188Z,28.94
2018-05-23T15:06:49.755Z,28.80
2018-05-23T15:09:17.332Z,28.77
2018-05-23T15:11:44.913Z,28.82
2018-05-23T15:14:12.496Z,28.84
2018-05-23T15:16:40.080Z,28.87
2018-05-23T15:19:07.667Z,28.82
2018-05-23T15:21:35.283Z,28.69
2018-05-23T15:24:02.859Z,28.49
2018-05-23T15:26:30.456Z,28.35
2018-05-23T15:28:58.053Z,28.30
2018-05-23T15:31:25.622Z,28.13
2018-05-23T15:33:53.233Z,27.83
2018-05-23T15:36:20.808Z,27.66
2018-05-23T15:38:48.426Z,27.57
2018-05-23T15:41:16.005Z,27.47
2018-05-23T15:43:43.642Z,27.38
2018-05-23T15:46:11.263Z,27.24
2018-05-23T15:48:38.842Z,27.12
2018-05-23T15:51:06.571Z,27.10
2018-05-23T15:53:34.095Z,27.04
2018-05-23T15:56:01.700Z,26.92
2018-05-23T15:58:29.292Z,26.72
2018-05-23T16:00:56.868Z,26.54
2018-05-23T16:03:24.483Z,26.46
2018-05-23T16:05:52.064Z,26.44
2018-05-23T16:08:19.690Z,26.44
2018-05-23T16:10:47.288Z,26.39
2018-05-23T16:13:14.880Z,26.36
2018-05-23T16:15:42.460Z,26.28
2018-05-23T16:18:10.024Z,26.19
2018-05-23T16:20:38.581Z,26.12
2018-05-23T16:23:06.357Z,26.05
2018-05-23T16:25:33.948Z,26.06
2018-05-23T16:28:01.518Z,26.04
2018-05-23T16:30:29.088Z,26.04
2018-05-23T16:32:56.670Z,26.03
2018-05-23T16:35:24.240Z,26.00
2018-05-23T16:37:51.860Z,25.95
2018-05-23T16:40:19.442Z,25.90
2018-05-23T16:42:47.011Z,25.84
2018-05-23T16:45:14.597Z,25.76
2018-05-23T16:47:42.166Z,25.70
2018-05-23T16:50:09.751Z,25.50
2018-05-23T16:52:37.313Z,25.62
2018-05-23T16:55:04.937Z,25.56
2018-05-23T16:57:32.509Z,25.49
2018-05-23T17:00:00.093Z,25.48
2018-05-23T17:02:27.760Z,25.42
2018-05-23T17:04:55.412Z,25.38
2018-05-23T17:07:22.992Z,25.28
2018-05-23T17:09:50.553Z,25.24
2018-05-23T17:12:18.149Z,25.17
2018-05-23T17:14:45.716Z,25.10
2018-05-23T17:17:13.380Z,25.07
2018-05-23T17:19:40.952Z,24.99
2018-05-23T17:22:08.524Z,24.94
2018-05-23T17:24:36.093Z,24.89
2018-05-23T17:27:03.737Z,24.84
2018-05-23T17:29:31.312Z,24.78
2018-05-23T17:31:58.941Z,24.71
2018-05-23T17:34:26.579Z,24.59
2018-05-23T17:36:54.145Z,24.57
2018-05-23T17:39:21.792Z,24.50
2018-05-23T17:41:49.381Z,24.43
2018-05-23T17:44:16.969Z,24.38
2018-05-23T17:46:44.568Z,24.33
2018-05-23T17:49:12.165Z,24.26
2018-05-23T17:51:39.819Z,24.21
2018-05-23T17:54:07.424Z,24.15
2018-05-23T17:56:34.996Z,24.09
2018-05-23T17:59:02.576Z,24.02
2018-05-23T18:01:30.148Z,23.93
2018-05-23T18:03:57.725Z,23.90
2018-05-23T18:06:25.365Z,23.89
2018-05-23T18:08:52.971Z,23.84
2018-05-23T18:11:20.584Z,23.81
2018-05-23T18:13:48.213Z,23.76
2018-05-23T18:16:15.836Z,23.71
2018-05-23T18:18:43.410Z,23.70
2018-05-23T18:21:10.991Z,23.65
2018-05-23T18:23:38.608Z,23.59
2018-05-23T18:26:06.256Z,23.54
2018-05-23T18:28:33.936Z,23.54
2018-05-23T18:31:01.453Z,23.49
2018-05-23T18:33:29.028Z,23.44
2018-05-23T18:35:56.608Z,23.39
2018-05-23T18:38:24.231Z,23.35
2018-05-23T18:40:51.800Z,23.34
2018-05-23T18:43:19.425Z,23.29
2018-05-23T18:45:47.004Z,23.20
2018-05-23T18:48:14.580Z,23.08
2018-05-23T18:50:42.176Z,23.01
2018-05-23T18:53:09.854Z,22.98
2018-05-23T18:55:37.457Z,22.94
2018-05-23T18:58:05.040Z,22.90
2018-05-23T19:00:32.680Z,22.78
2018-05-23T19:03:00.417Z,22.73
2018-05-23T19:05:28.059Z,22.70
2018-05-23T19:07:55.660Z,22.57
2018-05-23T19:10:23.472Z,22.52
2018-05-23T19:12:51.088Z,22.38
2018-05-23T19:15:18.726Z,22.30
2018-05-23T19:17:46.409Z,22.18
2018-05-23T19:20:14.030Z,22.09
2018-05-23T19:22:41.616Z,22.03
2018-05-23T19:25:09.200Z,21.99
2018-05-23T19:27:36.785Z,21.95
2018-05-23T19:30:04.474Z,21.89
2018-05-23T19:32:32.065Z,21.84
2018-05-23T19:34:59.659Z,21.74
2018-05-23T19:37:27.266Z,21.71
2018-05-23T19:39:55.087Z,21.64
2018-05-23T19:42:22.601Z,21.60
2018-05-23T19:44:50.225Z,21.52
2018-05-23T19:47:17.900Z,21.49
2018-05-23T19:49:45.532Z,21.44
2018-05-23T19:52:13.229Z,21.35
2018-05-23T19:54:40.845Z,21.09
2018-05-23T19:57:08.467Z,21.25
2018-05-23T19:59:36.044Z,21.20
2018-05-23T20:02:03.739Z,21.11
2018-05-23T20:04:31.405Z,21.10
2018-05-23T20:06:58.997Z,21.11
2018-05-23T20:09:26.761Z,21.09
2018-05-23T20:11:54.475Z,21.00
2018-05-23T20:14:22.210Z,20.97
2018-05-23T20:16:49.792Z,20.98
2018-05-23T20:19:17.388Z,20.93
2018-05-23T20:21:44.955Z,20.81
2018-05-23T20:24:13.071Z,20.91
2018-05-23T20:26:41.488Z,20.83
2018-05-23T20:29:09.379Z,20.82
2018-05-23T20:31:37.022Z,20.78
2018-05-23T20:34:04.624Z,20.77
2018-05-23T20:36:32.212Z,20.75
2018-05-23T20:39:00.019Z,20.70
2018-05-23T20:41:27.660Z,20.70
2018-05-23T20:43:55.250Z,20.67
2018-05-23T20:46:23.046Z,20.67
2018-05-23T20:48:50.619Z,20.61
2018-05-23T20:51:18.202Z,20.56
2018-05-23T20:53:45.873Z,20.44
2018-05-23T20:56:13.456Z,20.41
2018-05-23T20:58:41.065Z,20.38
2018-05-23T21:01:08.810Z,20.32
2018-05-23T21:03:36.385Z,20.29
2018-05-23T21:06:04.000Z,20.19
2018-05-23T21:08:31.762Z,20.22
2018-05-23T21:10:59.624Z,20.18
2018-05-23T21:13:27.212Z,20.15
2018-05-23T21:15:55.064Z,20.10
2018-05-23T21:18:22.692Z,20.07
2018-05-23T21:20:50.268Z,20.05
2018-05-23T21:23:17.892Z,19.98
2018-05-23T21:25:45.552Z,19.93
2018-05-23T21:28:13.180Z,19.89
2018-05-23T21:30:41.281Z,19.81
2018-05-23T21:33:08.935Z,19.79
2018-05-23T21:35:36.902Z,19.76
2018-05-23T21:38:04.891Z,19.69
2018-05-23T21:40:32.494Z,19.49
2018-05-23T21:43:00.073Z,19.61
2018-05-23T21:45:27.840Z,19.57
2018-05-23T21:47:55.541Z,19.46
2018-05-23T21:50:23.179Z,19.43
2018-05-23T21:52:50.865Z,19.35
2018-05-23T21:55:18.567Z,19.20
2018-05-23T21:57:46.368Z,19.25
2018-05-23T22:00:14.478Z,19.18
2018-05-23T22:02:42.333Z,19.18
2018-05-23T22:05:09.931Z,19.12
2018-05-23T22:07:38.389Z,19.07
2018-05-23T22:10:06.022Z,19.05
2018-05-23T22:12:33.671Z,19.04
2018-05-23T22:15:01.269Z,18.98
2018-05-23T22:17:29.018Z,18.97
2018-05-23T22:19:56.937Z,18.98
2018-05-23T22:22:24.633Z,18.90
2018-05-23T22:24:52.372Z,18.90
2018-05-23T22:27:20.129Z,18.89
2018-05-23T22:29:47.726Z,18.82
2018-05-23T22:32:15.909Z,18.85
2018-05-23T22:34:44.556Z,18.81
2018-05-23T22:37:12.187Z,18.83
2018-05-23T22:39:39.768Z,18.78
2018-05-23T22:42:07.368Z,18.66
2018-05-23T22:44:35.034Z,18.48
2018-05-23T22:47:02.604Z,18.37
2018-05-23T22:49:30.359Z,18.24
2018-05-23T22:51:59.009Z,18.19
2018-05-23T22:54:26.998Z,18.16
2018-05-23T22:56:54.572Z,18.11
2018-05-23T22:59:22.235Z,18.06
2018-05-23T23:01:50.055Z,18.07
2018-05-23T23:04:17.773Z,18.12
2018-05-23T23:06:45.600Z,18.13
2018-05-23T23:09:15.409Z,17.95
2018-05-23T23:11:43.552Z,18.14
2018-05-23T23:14:11.358Z,18.16
2018-05-23T23:16:39.161Z,18.08
2018-05-23T23:19:07.002Z,18.03
2018-05-23T23:21:34.813Z,17.94
2018-05-23T23:24:02.645Z,17.90
2018-05-23T23:26:30.253Z,17.86
2018-05-23T23:28:57.978Z,17.83
2018-05-23T23:31:25.749Z,17.83
2018-05-23T23:33:53.505Z,17.83
2018-05-23T23:36:21.180Z,17.75
2018-05-23T23:38:48.764Z,17.77
2018-05-23T23:41:16.388Z,17.71
2018-05-23T23:43:43.978Z,17.71
2018-05-23T23:46:11.674Z,17.63
2018-05-23T23:48:39.234Z,17.59
2018-05-23T23:51:06.915Z,17.53
2018-05-23T23:53:34.529Z,17.49
2018-05-23T23:56:02.370Z,17.49
2018-05-23T23:58:30.186Z,17.52
